sensor_id;sensor_type;location;lat;lon;timestamp;P1;durP1;ratioP1;P2;durP2;ratioP2
9409;SDS011;4744;52.576;13.568;2022-08-21T00:01:27;9.35;;;8.52;;
9409;SDS011;4744;52.576;13.568;2022-08-21T00:03:56;7.93;;;7.32;;
9409;SDS011;4744;52.576;13.568;2022-08-21T00:06:23;8.90;;;8.20;;
9409;SDS011;4744;52.576;13.568;2022-08-21T00:08:50;8.32;;;7.63;;
9409;SDS011;4744;52.576;13.568;2022-08-21T00:11:17;8.23;;;7.57;;
9409;SDS011;4744;52.576;13.568;2022-08-21T00:13:44;7.07;;;6.57;;
9409;SDS011;4744;52.576;13.568;2022-08-21T00:16:11;7.38;;;6.78;;
9409;SDS011;4744;52.576;13.568;2022-08-21T00:18:38;8.63;;;7.90;;
9409;SDS011;4744;52.576;13.568;2022-08-21T00:21:07;8.18;;;7.47;;
9409;SDS011;4744;52.576;13.568;2022-08-21T00:23:34;8.18;;;7.57;;
9409;SDS011;4744;52.576;13.568;2022-08-21T00:26:01;8.57;;;7.88;;
9409;SDS011;4744;52.576;13.568;2022-08-21T00:28:28;7.53;;;6.97;;
9409;SDS011;4744;52.576;13.568;2022-08-21T00:30:55;8.15;;;7.55;;
9409;SDS011;4744;52.576;13.568;2022-08-21T00:33:22;7.32;;;6.72;;
9409;SDS011;4744;52.576;13.568;2022-08-21T00:35:49;7.75;;;7.15;;
9409;SDS011;4744;52.576;13.568;2022-08-21T00:38:17;7.22;;;6.63;;
9409;SDS011;4744;52.576;13.568;2022-08-21T00:40:46;7.03;;;6.30;;
9409;SDS011;4744;52.576;13.568;2022-08-21T00:43:17;6.97;;;6.47;;
9409;SDS011;4744;52.576;13.568;2022-08-21T00:45:45;6.88;;;6.38;;
9409;SDS011;4744;52.576;13.568;2022-08-21T00:48:12;7.40;;;6.80;;
9409;SDS011;4744;52.576;13.568;2022-08-21T00:50:40;7.70;;;7.00;;
9409;SDS011;4744;52.576;13.568;2022-08-21T00:53:10;6.63;;;6.13;;
9409;SDS011;4744;52.576;13.568;2022-08-21T00:55:40;7.35;;;6.80;;
9409;SDS011;4744;52.576;13.568;2022-08-21T00:58:08;6.75;;;6.15;;
9409;SDS011;4744;52.576;13.568;2022-08-21T01:00:37;7.55;;;6.85;;
9409;SDS011;4744;52.576;13.568;2022-08-21T01:03:07;6.63;;;6.13;;
9409;SDS011;4744;52.576;13.568;2022-08-21T01:05:36;6.72;;;6.22;;
9409;SDS011;4744;52.576;13.568;2022-08-21T01:08:04;6.05;;;5.55;;
9409;SDS011;4744;52.576;13.568;2022-08-21T01:10:32;7.32;;;6.63;;
9409;SDS011;4744;52.576;13.568;2022-08-21T01:13:02;7.63;;;6.55;;
9409;SDS011;4744;52.576;13.568;2022-08-21T01:15:33;6.70;;;6.13;;
9409;SDS011;4744;52.576;13.568;2022-08-21T01:18:10;6.47;;;5.72;;
9409;SDS011;4744;52.576;13.568;2022-08-21T01:20:38;7.07;;;6.47;;
9409;SDS011;4744;52.576;13.568;2022-08-21T01:23:10;6.85;;;6.30;;
9409;SDS011;4744;52.576;13.568;2022-08-21T01:25:37;6.13;;;5.63;;
9409;SDS011;4744;52.576;13.568;2022-08-21T01:28:06;5.57;;;5.07;;
9409;SDS011;4744;52.576;13.568;2022-08-21T01:30:38;5.45;;;5.05;;
9409;SDS011;4744;52.576;13.568;2022-08-21T01:33:05;5.47;;;4.97;;
9409;SDS011;4744;52.576;13.568;2022-08-21T01:35:32;5.60;;;5.20;;
9409;SDS011;4744;52.576;13.568;2022-08-21T01:37:59;5.47;;;5.07;;
9409;SDS011;4744;52.576;13.568;2022-08-21T01:40:28;5.82;;;5.32;;
9409;SDS011;4744;52.576;13.568;2022-08-21T01:42:54;6.13;;;5.53;;
9409;SDS011;4744;52.576;13.568;2022-08-21T01:45:21;5.80;;;5.30;;
9409;SDS011;4744;52.576;13.568;2022-08-21T01:47:48;6.18;;;5.28;;
9409;SDS011;4744;52.576;13.568;2022-08-21T01:50:16;5.97;;;5.47;;
9409;SDS011;4744;52.576;13.568;2022-08-21T01:52:44;6.10;;;5.47;;
9409;SDS011;4744;52.576;13.568;2022-08-21T01:55:14;6.13;;;5.50;;
9409;SDS011;4744;52.576;13.568;2022-08-21T01:57:45;6.18;;;5.70;;
9409;SDS011;4744;52.576;13.568;2022-08-21T02:00:13;6.63;;;6.03;;
9409;SDS011;4744;52.576;13.568;2022-08-21T02:02:42;5.30;;;4.90;;
9409;SDS011;4744;52.576;13.568;2022-08-21T02:05:10;5.82;;;5.32;;
9409;SDS011;4744;52.576;13.568;2022-08-21T02:07:38;4.88;;;4.57;;
9409;SDS011;4744;52.576;13.568;2022-08-21T02:10:07;4.30;;;4.00;;
9409;SDS011;4744;52.576;13.568;2022-08-21T02:12:36;5.20;;;4.80;;
9409;SDS011;4744;52.576;13.568;2022-08-21T02:15:05;5.43;;;4.93;;
9409;SDS011;4744;52.576;13.568;2022-08-21T02:17:38;5.78;;;5.15;;
9409;SDS011;4744;52.576;13.568;2022-08-21T02:20:07;4.68;;;4.35;;
9409;SDS011;4744;52.576;13.568;2022-08-21T02:22:35;4.97;;;4.57;;
9409;SDS011;4744;52.576;13.568;2022-08-21T02:25:02;4.72;;;4.43;;
9409;SDS011;4744;52.576;13.568;2022-08-21T02:27:36;4.78;;;4.47;;
9409;SDS011;4744;52.576;13.568;2022-08-21T02:30:07;5.13;;;4.68;;
9409;SDS011;4744;52.576;13.568;2022-08-21T02:32:36;5.20;;;4.85;;
9409;SDS011;4744;52.576;13.568;2022-08-21T02:35:06;5.47;;;4.97;;
9409;SDS011;4744;52.576;13.568;2022-08-21T02:37:34;5.07;;;4.68;;
9409;SDS011;4744;52.576;13.568;2022-08-21T02:40:08;4.78;;;4.38;;
9409;SDS011;4744;52.576;13.568;2022-08-21T02:42:36;4.50;;;4.20;;
9409;SDS011;4744;52.576;13.568;2022-08-21T02:45:08;6.72;;;4.88;;
9409;SDS011;4744;52.576;13.568;2022-08-21T02:47:36;5.15;;;4.75;;
9409;SDS011;4744;52.576;13.568;2022-08-21T02:50:03;4.85;;;4.40;;
9409;SDS011;4744;52.576;13.568;2022-08-21T02:52:32;4.60;;;4.20;;
9409;SDS011;4744;52.576;13.568;2022-08-21T02:54:59;5.00;;;4.60;;
9409;SDS011;4744;52.576;13.568;2022-08-21T02:57:27;4.97;;;4.57;;
9409;SDS011;4744;52.576;13.568;2022-08-21T02:59:53;5.25;;;4.80;;
9409;SDS011;4744;52.576;13.568;2022-08-21T03:02:22;4.85;;;4.45;;
9409;SDS011;4744;52.576;13.568;2022-08-21T03:04:48;5.15;;;4.20;;
9409;SDS011;4744;52.576;13.568;2022-08-21T03:07:15;5.00;;;4.60;;
9409;SDS011;4744;52.576;13.568;2022-08-21T03:09:42;5.20;;;4.70;;
9409;SDS011;4744;52.576;13.568;2022-08-21T03:12:09;4.82;;;4.30;;
9409;SDS011;4744;52.576;13.568;2022-08-21T03:14:36;4.35;;;4.05;;
9409;SDS011;4744;52.576;13.568;2022-08-21T03:17:03;4.82;;;4.43;;
9409;SDS011;4744;52.576;13.568;2022-08-21T03:19:31;3.80;;;3.60;;
9409;SDS011;4744;52.576;13.568;2022-08-21T03:21:58;4.25;;;3.90;;
9409;SDS011;4744;52.576;13.568;2022-08-21T03:24:25;3.67;;;3.47;;
9409;SDS011;4744;52.576;13.568;2022-08-21T03:26:52;4.72;;;4.28;;
9409;SDS011;4744;52.576;13.568;2022-08-21T03:29:19;4.38;;;4.03;;
9409;SDS011;4744;52.576;13.568;2022-08-21T03:31:45;4.68;;;4.38;;
9409;SDS011;4744;52.576;13.568;2022-08-21T03:34:12;4.90;;;4.50;;
9409;SDS011;4744;52.576;13.568;2022-08-21T03:36:40;5.53;;;5.00;;
9409;SDS011;4744;52.576;13.568;2022-08-21T03:39:08;4.35;;;4.03;;
9409;SDS011;4744;52.576;13.568;2022-08-21T03:41:35;4.32;;;4.03;;
9409;SDS011;4744;52.576;13.568;2022-08-21T03:44:02;5.78;;;4.47;;
9409;SDS011;4744;52.576;13.568;2022-08-21T03:46:29;5.22;;;4.30;;
9409;SDS011;4744;52.576;13.568;2022-08-21T03:48:56;6.60;;;4.53;;
9409;SDS011;4744;52.576;13.568;2022-08-21T03:51:23;4.45;;;4.15;;
9409;SDS011;4744;52.576;13.568;2022-08-21T03:53:52;5.03;;;4.07;;
9409;SDS011;4744;52.576;13.568;2022-08-21T03:56:20;4.30;;;3.92;;
9409;SDS011;4744;52.576;13.568;2022-08-21T03:58:47;4.60;;;4.10;;
9409;SDS011;4744;52.576;13.568;2022-08-21T04:01:14;4.47;;;4.03;;
9409;SDS011;4744;52.576;13.568;2022-08-21T04:03:40;6.28;;;4.43;;
9409;SDS011;4744;52.576;13.568;2022-08-21T04:06:07;4.93;;;4.32;;
9409;SDS011;4744;52.576;13.568;2022-08-21T04:08:34;4.82;;;4.43;;
9409;SDS011;4744;52.576;13.568;2022-08-21T04:11:02;4.00;;;3.63;;
9409;SDS011;4744;52.576;13.568;2022-08-21T04:13:31;3.90;;;3.60;;
9409;SDS011;4744;52.576;13.568;2022-08-21T04:15:58;3.88;;;3.58;;
9409;SDS011;4744;52.576;13.568;2022-08-21T04:18:24;3.90;;;3.60;;
9409;SDS011;4744;52.576;13.568;2022-08-21T04:20:51;4.50;;;3.83;;
9409;SDS011;4744;52.576;13.568;2022-08-21T04:23:20;3.97;;;3.67;;
9409;SDS011;4744;52.576;13.568;2022-08-21T04:25:48;3.55;;;3.25;;
9409;SDS011;4744;52.576;13.568;2022-08-21T04:28:16;3.78;;;3.53;;
9409;SDS011;4744;52.576;13.568;2022-08-21T04:30:43;3.83;;;3.40;;
9409;SDS011;4744;52.576;13.568;2022-08-21T04:33:10;4.10;;;3.80;;
9409;SDS011;4744;52.576;13.568;2022-08-21T04:35:37;5.28;;;3.95;;
9409;SDS011;4744;52.576;13.568;2022-08-21T04:38:04;5.15;;;4.30;;
9409;SDS011;4744;52.576;13.568;2022-08-21T04:40:30;4.43;;;4.03;;
9409;SDS011;4744;52.576;13.568;2022-08-21T04:43:01;4.00;;;3.70;;
9409;SDS011;4744;52.576;13.568;2022-08-21T04:45:32;4.78;;;3.65;;
9409;SDS011;4744;52.576;13.568;2022-08-21T04:48:01;3.78;;;3.38;;
9409;SDS011;4744;52.576;13.568;2022-08-21T04:50:30;4.05;;;3.70;;
9409;SDS011;4744;52.576;13.568;2022-08-21T04:53:06;4.57;;;4.18;;
9409;SDS011;4744;52.576;13.568;2022-08-21T04:55:36;5.03;;;4.43;;
9409;SDS011;4744;52.576;13.568;2022-08-21T04:58:04;4.72;;;4.10;;
9409;SDS011;4744;52.576;13.568;2022-08-21T05:00:32;4.30;;;3.60;;
9409;SDS011;4744;52.576;13.568;2022-08-21T05:02:59;3.70;;;3.40;;
9409;SDS011;4744;52.576;13.568;2022-08-21T05:05:27;4.43;;;3.78;;
9409;SDS011;4744;52.576;13.568;2022-08-21T05:07:55;3.63;;;3.28;;
9409;SDS011;4744;52.576;13.568;2022-08-21T05:10:23;4.35;;;3.30;;
9409;SDS011;4744;52.576;13.568;2022-08-21T05:12:50;5.38;;;3.60;;
9409;SDS011;4744;52.576;13.568;2022-08-21T05:15:17;3.80;;;3.40;;
9409;SDS011;4744;52.576;13.568;2022-08-21T05:17:45;5.00;;;3.80;;
9409;SDS011;4744;52.576;13.568;2022-08-21T05:20:12;6.72;;;3.70;;
9409;SDS011;4744;52.576;13.568;2022-08-21T05:22:40;6.28;;;3.55;;
9409;SDS011;4744;52.576;13.568;2022-08-21T05:25:07;5.40;;;3.78;;
9409;SDS011;4744;52.576;13.568;2022-08-21T05:27:35;4.72;;;3.47;;
9409;SDS011;4744;52.576;13.568;2022-08-21T05:30:02;5.88;;;3.55;;
9409;SDS011;4744;52.576;13.568;2022-08-21T05:32:30;4.53;;;3.25;;
9409;SDS011;4744;52.576;13.568;2022-08-21T05:34:58;6.25;;;3.70;;
9409;SDS011;4744;52.576;13.568;2022-08-21T05:37:25;5.25;;;3.55;;
9409;SDS011;4744;52.576;13.568;2022-08-21T05:39:51;5.35;;;3.58;;
9409;SDS011;4744;52.576;13.568;2022-08-21T05:42:18;5.72;;;3.67;;
9409;SDS011;4744;52.576;13.568;2022-08-21T05:44:45;4.35;;;3.22;;
9409;SDS011;4744;52.576;13.568;2022-08-21T05:47:12;5.07;;;3.38;;
9409;SDS011;4744;52.576;13.568;2022-08-21T05:49:47;4.72;;;3.00;;
9409;SDS011;4744;52.576;13.568;2022-08-21T05:52:19;8.43;;;3.45;;
9409;SDS011;4744;52.576;13.568;2022-08-21T05:54:47;6.82;;;3.60;;
9409;SDS011;4744;52.576;13.568;2022-08-21T05:57:14;4.35;;;3.20;;
9409;SDS011;4744;52.576;13.568;2022-08-21T05:59:40;4.78;;;3.25;;
9409;SDS011;4744;52.576;13.568;2022-08-21T06:02:07;5.75;;;3.22;;
9409;SDS011;4744;52.576;13.568;2022-08-21T06:04:35;4.15;;;3.10;;
9409;SDS011;4744;52.576;13.568;2022-08-21T06:07:02;4.50;;;3.13;;
9409;SDS011;4744;52.576;13.568;2022-08-21T06:09:31;5.32;;;3.13;;
9409;SDS011;4744;52.576;13.568;2022-08-21T06:11:58;4.22;;;3.00;;
9409;SDS011;4744;52.576;13.568;2022-08-21T06:14:29;5.43;;;3.08;;
9409;SDS011;4744;52.576;13.568;2022-08-21T06:17:00;3.00;;;2.65;;
9409;SDS011;4744;52.576;13.568;2022-08-21T06:19:28;5.80;;;2.75;;
9409;SDS011;4744;52.576;13.568;2022-08-21T06:21:55;6.15;;;2.90;;
9409;SDS011;4744;52.576;13.568;2022-08-21T06:24:22;5.15;;;2.97;;
9409;SDS011;4744;52.576;13.568;2022-08-21T06:26:50;4.30;;;2.55;;
9409;SDS011;4744;52.576;13.568;2022-08-21T06:29:17;4.75;;;2.90;;
9409;SDS011;4744;52.576;13.568;2022-08-21T06:31:45;4.25;;;3.00;;
9409;SDS011;4744;52.576;13.568;2022-08-21T06:34:12;3.42;;;2.72;;
9409;SDS011;4744;52.576;13.568;2022-08-21T06:36:39;4.28;;;3.10;;
9409;SDS011;4744;52.576;13.568;2022-08-21T06:39:06;6.25;;;2.83;;
9409;SDS011;4744;52.576;13.568;2022-08-21T06:41:33;3.97;;;2.53;;
9409;SDS011;4744;52.576;13.568;2022-08-21T06:44:02;4.03;;;2.97;;
9409;SDS011;4744;52.576;13.568;2022-08-21T06:46:29;3.78;;;2.20;;
9409;SDS011;4744;52.576;13.568;2022-08-21T06:48:56;3.45;;;2.67;;
9409;SDS011;4744;52.576;13.568;2022-08-21T06:51:23;7.05;;;2.88;;
9409;SDS011;4744;52.576;13.568;2022-08-21T06:53:51;3.92;;;2.63;;
9409;SDS011;4744;52.576;13.568;2022-08-21T06:56:19;6.63;;;2.80;;
9409;SDS011;4744;52.576;13.568;2022-08-21T06:58:46;6.10;;;2.30;;
9409;SDS011;4744;52.576;13.568;2022-08-21T07:01:14;3.50;;;2.40;;
9409;SDS011;4744;52.576;13.568;2022-08-21T07:03:42;4.55;;;2.65;;
9409;SDS011;4744;52.576;13.568;2022-08-21T07:06:10;4.82;;;2.47;;
9409;SDS011;4744;52.576;13.568;2022-08-21T07:08:38;5.38;;;2.20;;
9409;SDS011;4744;52.576;13.568;2022-08-21T07:11:07;3.20;;;2.08;;
9409;SDS011;4744;52.576;13.568;2022-08-21T07:13:35;7.85;;;2.33;;
9409;SDS011;4744;52.576;13.568;2022-08-21T07:16:02;4.22;;;2.42;;
9409;SDS011;4744;52.576;13.568;2022-08-21T07:18:31;4.25;;;2.28;;
9409;SDS011;4744;52.576;13.568;2022-08-21T07:20:58;3.72;;;2.15;;
9409;SDS011;4744;52.576;13.568;2022-08-21T07:23:28;4.60;;;2.35;;
9409;SDS011;4744;52.576;13.568;2022-08-21T07:25:57;2.80;;;2.00;;
9409;SDS011;4744;52.576;13.568;2022-08-21T07:28:25;2.40;;;1.70;;
9409;SDS011;4744;52.576;13.568;2022-08-21T07:30:53;5.00;;;2.40;;
9409;SDS011;4744;52.576;13.568;2022-08-21T07:33:23;3.47;;;1.95;;
9409;SDS011;4744;52.576;13.568;2022-08-21T07:35:52;5.15;;;1.92;;
9409;SDS011;4744;52.576;13.568;2022-08-21T07:38:20;2.42;;;1.77;;
9409;SDS011;4744;52.576;13.568;2022-08-21T07:40:46;4.07;;;1.92;;
9409;SDS011;4744;52.576;13.568;2022-08-21T07:43:15;4.47;;;2.05;;
9409;SDS011;4744;52.576;13.568;2022-08-21T07:45:43;3.17;;;1.70;;
9409;SDS011;4744;52.576;13.568;2022-08-21T07:48:10;3.78;;;1.90;;
9409;SDS011;4744;52.576;13.568;2022-08-21T07:50:37;2.95;;;1.58;;
9409;SDS011;4744;52.576;13.568;2022-08-21T07:53:07;12.55;;;2.00;;
9409;SDS011;4744;52.576;13.568;2022-08-21T07:55:34;2.92;;;1.58;;
9409;SDS011;4744;52.576;13.568;2022-08-21T07:58:01;3.85;;;1.70;;
9409;SDS011;4744;52.576;13.568;2022-08-21T08:00:28;4.78;;;1.98;;
9409;SDS011;4744;52.576;13.568;2022-08-21T08:02:56;1.85;;;1.70;;
9409;SDS011;4744;52.576;13.568;2022-08-21T08:05:24;6.15;;;1.73;;
9409;SDS011;4744;52.576;13.568;2022-08-21T08:07:53;2.75;;;1.83;;
9409;SDS011;4744;52.576;13.568;2022-08-21T08:10:21;2.53;;;1.80;;
9409;SDS011;4744;52.576;13.568;2022-08-21T08:12:49;4.32;;;1.70;;
9409;SDS011;4744;52.576;13.568;2022-08-21T08:15:18;4.75;;;1.80;;
9409;SDS011;4744;52.576;13.568;2022-08-21T08:17:48;5.95;;;1.60;;
9409;SDS011;4744;52.576;13.568;2022-08-21T08:20:15;2.88;;;1.65;;
9409;SDS011;4744;52.576;13.568;2022-08-21T08:22:45;3.38;;;1.90;;
9409;SDS011;4744;52.576;13.568;2022-08-21T08:25:13;3.13;;;1.42;;
9409;SDS011;4744;52.576;13.568;2022-08-21T08:27:43;3.28;;;1.52;;
9409;SDS011;4744;52.576;13.568;2022-08-21T08:30:10;4.38;;;1.65;;
9409;SDS011;4744;52.576;13.568;2022-08-21T08:32:40;4.30;;;1.50;;
9409;SDS011;4744;52.576;13.568;2022-08-21T08:35:07;3.25;;;1.70;;
9409;SDS011;4744;52.576;13.568;2022-08-21T08:37:35;3.17;;;1.58;;
9409;SDS011;4744;52.576;13.568;2022-08-21T08:40:05;6.07;;;1.80;;
9409;SDS011;4744;52.576;13.568;2022-08-21T08:42:36;3.15;;;1.58;;
9409;SDS011;4744;52.576;13.568;2022-08-21T08:45:06;3.40;;;1.50;;
9409;SDS011;4744;52.576;13.568;2022-08-21T08:47:36;4.10;;;1.70;;
9409;SDS011;4744;52.576;13.568;2022-08-21T08:50:06;3.28;;;1.50;;
9409;SDS011;4744;52.576;13.568;2022-08-21T08:52:40;3.55;;;1.60;;
9409;SDS011;4744;52.576;13.568;2022-08-21T08:55:11;3.33;;;1.45;;
9409;SDS011;4744;52.576;13.568;2022-08-21T08:57:42;2.40;;;1.70;;
9409;SDS011;4744;52.576;13.568;2022-08-21T09:00:13;3.13;;;1.45;;
9409;SDS011;4744;52.576;13.568;2022-08-21T09:02:42;4.30;;;1.85;;
9409;SDS011;4744;52.576;13.568;2022-08-21T09:05:15;3.35;;;1.77;;
9409;SDS011;4744;52.576;13.568;2022-08-21T09:07:51;5.82;;;1.80;;
9409;SDS011;4744;52.576;13.568;2022-08-21T09:10:30;4.97;;;1.70;;
9409;SDS011;4744;52.576;13.568;2022-08-21T09:13:10;4.10;;;1.60;;
9409;SDS011;4744;52.576;13.568;2022-08-21T09:15:49;4.72;;;1.60;;
9409;SDS011;4744;52.576;13.568;2022-08-21T09:18:26;2.65;;;1.45;;
9409;SDS011;4744;52.576;13.568;2022-08-21T09:21:03;5.80;;;1.95;;
9409;SDS011;4744;52.576;13.568;2022-08-21T09:23:38;2.60;;;1.58;;
9409;SDS011;4744;52.576;13.568;2022-08-21T09:26:13;5.38;;;1.67;;
9409;SDS011;4744;52.576;13.568;2022-08-21T09:28:43;3.17;;;1.42;;
9409;SDS011;4744;52.576;13.568;2022-08-21T09:31:16;3.85;;;1.50;;
9409;SDS011;4744;52.576;13.568;2022-08-21T09:33:49;6.10;;;1.70;;
9409;SDS011;4744;52.576;13.568;2022-08-21T09:36:22;2.08;;;1.42;;
9409;SDS011;4744;52.576;13.568;2022-08-21T09:38:56;4.57;;;1.73;;
9409;SDS011;4744;52.576;13.568;2022-08-21T09:41:26;1.77;;;1.45;;
9409;SDS011;4744;52.576;13.568;2022-08-21T09:43:54;2.45;;;1.60;;
9409;SDS011;4744;52.576;13.568;2022-08-21T09:46:23;3.88;;;1.70;;
9409;SDS011;4744;52.576;13.568;2022-08-21T09:48:52;2.70;;;1.40;;
9409;SDS011;4744;52.576;13.568;2022-08-21T09:51:22;2.20;;;1.70;;
9409;SDS011;4744;52.576;13.568;2022-08-21T09:53:52;4.53;;;1.75;;
9409;SDS011;4744;52.576;13.568;2022-08-21T09:56:25;3.42;;;1.70;;
9409;SDS011;4744;52.576;13.568;2022-08-21T09:59:19;3.90;;;1.50;;
9409;SDS011;4744;52.576;13.568;2022-08-21T10:01:53;4.15;;;1.60;;
9409;SDS011;4744;52.576;13.568;2022-08-21T10:04:21;2.97;;;1.52;;
9409;SDS011;4744;52.576;13.568;2022-08-21T10:06:50;4.93;;;1.50;;
9409;SDS011;4744;52.576;13.568;2022-08-21T10:09:18;2.13;;;1.30;;
9409;SDS011;4744;52.576;13.568;2022-08-21T10:11:49;3.40;;;1.65;;
9409;SDS011;4744;52.576;13.568;2022-08-21T10:14:26;4.82;;;1.85;;
9409;SDS011;4744;52.576;13.568;2022-08-21T10:17:10;4.95;;;1.60;;
9409;SDS011;4744;52.576;13.568;2022-08-21T10:19:43;5.32;;;1.70;;
9409;SDS011;4744;52.576;13.568;2022-08-21T10:22:22;3.47;;;1.40;;
9409;SDS011;4744;52.576;13.568;2022-08-21T10:24:58;2.33;;;1.38;;
9409;SDS011;4744;52.576;13.568;2022-08-21T10:27:33;4.82;;;1.70;;
9409;SDS011;4744;52.576;13.568;2022-08-21T10:30:08;1.98;;;1.40;;
9409;SDS011;4744;52.576;13.568;2022-08-21T10:35:40;1.95;;;1.55;;
9409;SDS011;4744;52.576;13.568;2022-08-21T10:38:24;3.58;;;1.67;;
9409;SDS011;4744;52.576;13.568;2022-08-21T10:41:23;4.30;;;1.42;;
9409;SDS011;4744;52.576;13.568;2022-08-21T10:44:05;2.10;;;1.42;;
9409;SDS011;4744;52.576;13.568;2022-08-21T10:46:41;4.32;;;1.48;;
9409;SDS011;4744;52.576;13.568;2022-08-21T10:49:17;3.22;;;1.65;;
9409;SDS011;4744;52.576;13.568;2022-08-21T10:51:57;3.97;;;1.88;;
9409;SDS011;4744;52.576;13.568;2022-08-21T10:54:40;2.40;;;1.60;;
9409;SDS011;4744;52.576;13.568;2022-08-21T10:57:14;3.35;;;1.40;;
9409;SDS011;4744;52.576;13.568;2022-08-21T10:59:51;2.03;;;1.27;;
9409;SDS011;4744;52.576;13.568;2022-08-21T11:02:26;3.25;;;1.45;;
9409;SDS011;4744;52.576;13.568;2022-08-21T11:05:00;2.60;;;1.63;;
9409;SDS011;4744;52.576;13.568;2022-08-21T11:07:32;3.63;;;1.40;;
9409;SDS011;4744;52.576;13.568;2022-08-21T11:10:04;2.22;;;1.52;;
9409;SDS011;4744;52.576;13.568;2022-08-21T11:12:39;3.78;;;1.70;;
9409;SDS011;4744;52.576;13.568;2022-08-21T11:15:23;2.88;;;1.40;;
9409;SDS011;4744;52.576;13.568;2022-08-21T11:18:09;3.83;;;1.63;;
9409;SDS011;4744;52.576;13.568;2022-08-21T11:20:47;2.92;;;1.60;;
9409;SDS011;4744;52.576;13.568;2022-08-21T11:23:21;2.90;;;1.60;;
9409;SDS011;4744;52.576;13.568;2022-08-21T11:25:53;3.47;;;1.35;;
9409;SDS011;4744;52.576;13.568;2022-08-21T11:28:27;3.08;;;1.60;;
9409;SDS011;4744;52.576;13.568;2022-08-21T11:30:58;2.70;;;1.45;;
9409;SDS011;4744;52.576;13.568;2022-08-21T11:33:34;2.25;;;1.70;;
9409;SDS011;4744;52.576;13.568;2022-08-21T11:36:14;2.30;;;1.60;;
9409;SDS011;4744;52.576;13.568;2022-08-21T11:38:49;1.75;;;1.20;;
9409;SDS011;4744;52.576;13.568;2022-08-21T11:41:26;2.50;;;1.50;;
9409;SDS011;4744;52.576;13.568;2022-08-21T11:44:00;2.33;;;1.40;;
9409;SDS011;4744;52.576;13.568;2022-08-21T11:46:36;3.60;;;1.67;;
9409;SDS011;4744;52.576;13.568;2022-08-21T11:49:18;1.67;;;1.58;;
9409;SDS011;4744;52.576;13.568;2022-08-21T11:51:59;2.53;;;1.30;;
9409;SDS011;4744;52.576;13.568;2022-08-21T11:54:34;2.95;;;1.38;;
9409;SDS011;4744;52.576;13.568;2022-08-21T11:57:05;2.20;;;1.30;;
9409;SDS011;4744;52.576;13.568;2022-08-21T11:59:40;2.90;;;1.35;;
9409;SDS011;4744;52.576;13.568;2022-08-21T12:02:13;1.77;;;1.33;;
9409;SDS011;4744;52.576;13.568;2022-08-21T12:04:43;2.97;;;1.40;;
9409;SDS011;4744;52.576;13.568;2022-08-21T12:07:14;1.88;;;1.35;;
9409;SDS011;4744;52.576;13.568;2022-08-21T12:09:51;4.10;;;1.80;;
9409;SDS011;4744;52.576;13.568;2022-08-21T12:12:25;1.85;;;1.60;;
9409;SDS011;4744;52.576;13.568;2022-08-21T12:15:03;2.85;;;1.38;;
9409;SDS011;4744;52.576;13.568;2022-08-21T12:17:40;2.65;;;1.42;;
9409;SDS011;4744;52.576;13.568;2022-08-21T12:20:18;5.13;;;1.80;;
9409;SDS011;4744;52.576;13.568;2022-08-21T12:23:04;3.53;;;1.65;;
9409;SDS011;4744;52.576;13.568;2022-08-21T12:25:41;3.95;;;1.45;;
9409;SDS011;4744;52.576;13.568;2022-08-21T12:28:10;4.55;;;1.85;;
9409;SDS011;4744;52.576;13.568;2022-08-21T12:30:39;3.08;;;1.55;;
9409;SDS011;4744;52.576;13.568;2022-08-21T12:33:18;3.25;;;1.25;;
9409;SDS011;4744;52.576;13.568;2022-08-21T12:35:47;1.90;;;1.30;;
9409;SDS011;4744;52.576;13.568;2022-08-21T12:38:17;1.85;;;1.20;;
9409;SDS011;4744;52.576;13.568;2022-08-21T12:40:47;2.35;;;1.40;;
9409;SDS011;4744;52.576;13.568;2022-08-21T12:43:19;1.95;;;1.60;;
9409;SDS011;4744;52.576;13.568;2022-08-21T12:45:50;2.78;;;1.20;;
9409;SDS011;4744;52.576;13.568;2022-08-21T12:48:18;1.33;;;1.13;;
9409;SDS011;4744;52.576;13.568;2022-08-21T12:50:50;1.98;;;1.20;;
9409;SDS011;4744;52.576;13.568;2022-08-21T12:53:25;2.28;;;1.33;;
9409;SDS011;4744;52.576;13.568;2022-08-21T12:55:56;2.35;;;1.45;;
9409;SDS011;4744;52.576;13.568;2022-08-21T12:58:26;1.77;;;1.42;;
9409;SDS011;4744;52.576;13.568;2022-08-21T13:00:55;1.77;;;1.25;;
9409;SDS011;4744;52.576;13.568;2022-08-21T13:03:25;2.03;;;1.40;;
9409;SDS011;4744;52.576;13.568;2022-08-21T13:05:53;2.30;;;1.17;;
9409;SDS011;4744;52.576;13.568;2022-08-21T13:08:21;2.55;;;1.40;;
9409;SDS011;4744;52.576;13.568;2022-08-21T13:10:55;3.10;;;1.00;;
9409;SDS011;4744;52.576;13.568;2022-08-21T13:13:26;1.35;;;1.17;;
9409;SDS011;4744;52.576;13.568;2022-08-21T13:15:56;2.70;;;1.30;;
9409;SDS011;4744;52.576;13.568;2022-08-21T13:18:27;1.35;;;1.20;;
9409;SDS011;4744;52.576;13.568;2022-08-21T13:21:02;1.77;;;1.10;;
9409;SDS011;4744;52.576;13.568;2022-08-21T13:23:31;4.97;;;1.23;;
9409;SDS011;4744;52.576;13.568;2022-08-21T13:25:59;1.48;;;1.33;;
9409;SDS011;4744;52.576;13.568;2022-08-21T13:28:32;1.35;;;1.33;;
9409;SDS011;4744;52.576;13.568;2022-08-21T13:31:05;1.17;;;1.05;;
9409;SDS011;4744;52.576;13.568;2022-08-21T13:33:35;1.50;;;1.02;;
9409;SDS011;4744;52.576;13.568;2022-08-21T13:36:04;7.07;;;6.38;;
9409;SDS011;4744;52.576;13.568;2022-08-21T13:38:35;3.28;;;2.97;;
9409;SDS011;4744;52.576;13.568;2022-08-21T13:41:05;1.42;;;1.10;;
9409;SDS011;4744;52.576;13.568;2022-08-21T13:43:37;1.40;;;1.02;;
9409;SDS011;4744;52.576;13.568;2022-08-21T13:46:10;0.85;;;0.85;;
9409;SDS011;4744;52.576;13.568;2022-08-21T13:48:39;1.80;;;1.00;;
9409;SDS011;4744;52.576;13.568;2022-08-21T13:51:07;2.90;;;1.27;;
9409;SDS011;4744;52.576;13.568;2022-08-21T13:53:35;1.65;;;0.70;;
9409;SDS011;4744;52.576;13.568;2022-08-21T13:56:22;3.80;;;1.08;;
9409;SDS011;4744;52.576;13.568;2022-08-21T13:58:51;1.73;;;1.10;;
9409;SDS011;4744;52.576;13.568;2022-08-21T14:01:21;1.70;;;1.60;;
9409;SDS011;4744;52.576;13.568;2022-08-21T14:03:50;1.60;;;1.50;;
9409;SDS011;4744;52.576;13.568;2022-08-21T14:06:21;1.17;;;1.08;;
9409;SDS011;4744;52.576;13.568;2022-08-21T14:08:50;1.40;;;1.08;;
9409;SDS011;4744;52.576;13.568;2022-08-21T14:11:19;1.10;;;1.10;;
9409;SDS011;4744;52.576;13.568;2022-08-21T14:13:49;0.95;;;0.95;;
9409;SDS011;4744;52.576;13.568;2022-08-21T14:16:23;1.65;;;1.05;;
9409;SDS011;4744;52.576;13.568;2022-08-21T14:18:53;1.42;;;1.10;;
9409;SDS011;4744;52.576;13.568;2022-08-21T14:21:37;1.80;;;1.05;;
9409;SDS011;4744;52.576;13.568;2022-08-21T14:24:07;1.00;;;0.98;;
9409;SDS011;4744;52.576;13.568;2022-08-21T14:26:41;1.48;;;0.82;;
9409;SDS011;4744;52.576;13.568;2022-08-21T14:29:13;2.05;;;1.08;;
9409;SDS011;4744;52.576;13.568;2022-08-21T14:31:42;2.03;;;0.95;;
9409;SDS011;4744;52.576;13.568;2022-08-21T14:34:10;3.50;;;1.13;;
9409;SDS011;4744;52.576;13.568;2022-08-21T14:36:39;1.13;;;0.70;;
9409;SDS011;4744;52.576;13.568;2022-08-21T14:39:05;1.67;;;1.10;;
9409;SDS011;4744;52.576;13.568;2022-08-21T14:41:32;2.40;;;1.35;;
9409;SDS011;4744;52.576;13.568;2022-08-21T14:43:59;2.75;;;1.23;;
9409;SDS011;4744;52.576;13.568;2022-08-21T14:46:28;1.20;;;1.08;;
9409;SDS011;4744;52.576;13.568;2022-08-21T14:48:57;1.50;;;1.40;;
9409;SDS011;4744;52.576;13.568;2022-08-21T14:51:24;1.85;;;1.30;;
9409;SDS011;4744;52.576;13.568;2022-08-21T14:53:51;1.08;;;0.93;;
9409;SDS011;4744;52.576;13.568;2022-08-21T14:56:18;2.58;;;1.13;;
9409;SDS011;4744;52.576;13.568;2022-08-21T14:58:45;2.38;;;1.20;;
9409;SDS011;4744;52.576;13.568;2022-08-21T15:01:15;1.05;;;0.80;;
9409;SDS011;4744;52.576;13.568;2022-08-21T15:03:44;1.20;;;0.82;;
9409;SDS011;4744;52.576;13.568;2022-08-21T15:06:13;2.63;;;1.27;;
9409;SDS011;4744;52.576;13.568;2022-08-21T15:08:40;1.77;;;1.38;;
9409;SDS011;4744;52.576;13.568;2022-08-21T15:11:08;2.72;;;1.30;;
9409;SDS011;4744;52.576;13.568;2022-08-21T15:13:39;1.95;;;1.30;;
9409;SDS011;4744;52.576;13.568;2022-08-21T15:16:07;1.75;;;1.05;;
9409;SDS011;4744;52.576;13.568;2022-08-21T15:18:36;2.55;;;1.40;;
9409;SDS011;4744;52.576;13.568;2022-08-21T15:21:05;3.10;;;1.30;;